createdAt,value
2019-05-12T00:00:24.922Z,0.60
2019-05-12T00:02:53.627Z,0.67
2019-05-12T00:05:22.288Z,0.70
2019-05-12T00:07:51.090Z,0.60
2019-05-12T00:10:19.932Z,0.53
2019-05-12T00:12:48.759Z,0.70
2019-05-12T00:15:19.102Z,0.70
2019-05-12T00:18:09.187Z,0.60
2019-05-12T00:20:38.630Z,0.60
2019-05-12T00:23:23.339Z,0.50
2019-05-12T00:25:38.919Z,0.67
2019-05-12T00:28:07.890Z,0.63
2019-05-12T00:30:43.039Z,0.70
2019-05-12T00:33:11.699Z,0.53
2019-05-12T00:35:40.190Z,0.80
2019-05-12T00:38:09.478Z,0.63
2019-05-12T00:40:39.484Z,0.70
2019-05-12T00:43:09.131Z,0.60
2019-05-12T00:45:38.814Z,0.80
2019-05-12T00:48:09.140Z,0.50
2019-05-12T00:50:38.590Z,0.60
2019-05-12T00:53:09.005Z,0.83
2019-05-12T00:55:38.481Z,0.60
2019-05-12T00:58:08.427Z,0.53
2019-05-12T01:00:40.590Z,0.60
2019-05-12T01:03:09.217Z,0.50
2019-05-12T01:05:38.257Z,0.60
2019-05-12T01:08:09.026Z,0.80
2019-05-12T01:10:39.127Z,0.60
2019-05-12T01:13:09.218Z,0.60
2019-05-12T01:15:38.186Z,0.50
2019-05-12T01:18:09.362Z,0.70
2019-05-12T01:20:38.906Z,0.70
2019-05-12T01:23:08.732Z,0.60
2019-05-12T01:25:39.538Z,0.50
2019-05-12T01:28:08.427Z,0.63
2019-05-12T01:30:39.166Z,0.60
2019-05-12T01:33:08.807Z,0.53
2019-05-12T01:35:38.770Z,0.70
2019-05-12T01:38:08.436Z,0.40
2019-05-12T01:40:39.570Z,0.57
2019-05-12T01:43:08.956Z,0.63
2019-05-12T01:45:38.146Z,0.57
2019-05-12T01:48:08.714Z,0.67
2019-05-12T01:50:38.723Z,0.63
2019-05-12T01:53:08.273Z,0.57
2019-05-12T01:55:38.584Z,0.60
2019-05-12T01:58:08.335Z,0.50
2019-05-12T02:00:38.794Z,0.63
2019-05-12T02:03:09.413Z,0.50
2019-05-12T02:05:40.894Z,0.70
2019-05-12T02:08:15.136Z,0.60
2019-05-12T02:10:43.910Z,0.70
2019-05-12T02:13:12.646Z,0.67
2019-05-12T02:15:41.447Z,0.50
2019-05-12T02:18:10.208Z,0.60
2019-05-12T02:20:38.681Z,0.80
2019-05-12T02:23:08.909Z,0.83
2019-05-12T02:25:38.305Z,0.93
2019-05-12T02:28:09.387Z,1.00
2019-05-12T02:30:41.233Z,1.17
2019-05-12T02:33:07.782Z,1.30
2019-05-12T02:35:36.318Z,1.10
2019-05-12T02:38:05.453Z,1.00
2019-05-12T02:40:35.079Z,0.80
2019-05-12T02:43:05.333Z,0.70
2019-05-12T02:45:35.471Z,0.70
2019-05-12T02:48:05.194Z,1.00
2019-05-12T02:50:36.785Z,0.70
2019-05-12T02:53:06.240Z,0.60
2019-05-12T02:55:35.684Z,0.80
2019-05-12T02:58:05.535Z,0.60
2019-05-12T03:00:36.749Z,0.70
2019-05-12T03:03:08.441Z,0.73
2019-05-12T03:05:45.917Z,0.67
2019-05-12T03:08:15.300Z,0.60
2019-05-12T03:10:47.646Z,0.57
2019-05-12T03:13:16.125Z,0.80
2019-05-12T03:15:44.921Z,0.50
2019-05-12T03:18:14.602Z,0.60
2019-05-12T03:20:45.503Z,1.00
2019-05-12T03:23:18.530Z,0.83
2019-05-12T03:25:45.558Z,0.90
2019-05-12T03:28:15.904Z,1.10
2019-05-12T03:30:48.241Z,1.00
2019-05-12T03:33:19.233Z,0.97
2019-05-12T03:35:52.364Z,1.00
2019-05-12T03:38:16.147Z,1.50
2019-05-12T03:40:45.357Z,1.00
2019-05-12T03:43:14.861Z,0.80
2019-05-12T03:45:45.214Z,0.87
2019-05-12T03:48:15.006Z,0.90
2019-05-12T03:50:46.000Z,0.80
2019-05-12T03:53:15.855Z,0.93
2019-05-12T03:55:46.922Z,1.07
2019-05-12T03:58:15.484Z,1.00
2019-05-12T04:00:44.662Z,1.00
2019-05-12T04:03:15.293Z,0.90
2019-05-12T04:05:45.281Z,0.73
2019-05-12T04:08:15.760Z,1.00
2019-05-12T04:10:45.934Z,0.90
2019-05-12T04:13:15.236Z,0.90
2019-05-12T04:15:45.525Z,0.90
2019-05-12T04:18:15.876Z,0.80
2019-05-12T04:20:45.482Z,1.00
2019-05-12T04:23:15.471Z,1.10
2019-05-12T04:25:52.346Z,1.10
2019-05-12T04:28:15.898Z,0.80
2019-05-12T04:30:44.797Z,1.00
2019-05-12T04:33:15.591Z,0.90
2019-05-12T04:35:45.149Z,0.90
2019-05-12T04:38:14.804Z,0.87
2019-05-12T04:40:44.979Z,1.00
2019-05-12T04:43:14.713Z,1.30
2019-05-12T04:45:45.041Z,1.70
2019-05-12T04:48:15.583Z,1.60
2019-05-12T04:50:45.281Z,1.30
2019-05-12T04:53:14.409Z,1.20
2019-05-12T04:55:44.568Z,0.90
2019-05-12T04:58:15.763Z,1.00
2019-05-12T05:00:44.915Z,0.97
2019-05-12T05:03:14.317Z,0.93
2019-05-12T05:05:44.438Z,0.90
2019-05-12T05:08:19.211Z,0.83
2019-05-12T05:10:45.161Z,0.90
2019-05-12T05:13:14.909Z,0.90
2019-05-12T05:15:45.815Z,1.13
2019-05-12T05:18:15.301Z,0.97
2019-05-12T05:20:44.649Z,1.07
2019-05-12T05:23:14.193Z,0.90
2019-05-12T05:25:43.601Z,1.00
2019-05-12T05:28:14.325Z,1.20
2019-05-12T05:30:44.134Z,1.10
2019-05-12T05:33:14.525Z,1.10
2019-05-12T05:35:43.695Z,1.20
2019-05-12T05:38:18.678Z,1.40
2019-05-12T05:40:44.133Z,1.30
2019-05-12T05:43:17.960Z,1.40
2019-05-12T05:45:43.907Z,1.20
2019-05-12T05:48:13.599Z,1.20
2019-05-12T05:50:44.078Z,1.30
2019-05-12T05:53:17.433Z,1.07
2019-05-12T05:55:44.437Z,1.10
2019-05-12T05:58:15.243Z,1.27
2019-05-12T06:00:43.774Z,1.17
2019-05-12T06:03:22.248Z,1.37
2019-05-12T06:05:43.444Z,1.03
2019-05-12T06:08:16.289Z,1.20
2019-05-12T06:10:43.472Z,1.20
2019-05-12T06:13:14.385Z,1.17
2019-05-12T06:15:43.486Z,1.40
2019-05-12T06:18:14.114Z,1.50
2019-05-12T06:20:43.735Z,1.40
2019-05-12T06:23:14.799Z,1.30
2019-05-12T06:25:47.409Z,1.20
2019-05-12T06:28:14.559Z,1.10
2019-05-12T06:30:46.695Z,1.20
2019-05-12T06:33:14.480Z,1.50
2019-05-12T06:35:45.390Z,1.30
2019-05-12T06:38:13.662Z,1.70
2019-05-12T06:40:45.329Z,1.60
2019-05-12T06:43:14.382Z,1.33
2019-05-12T06:45:45.554Z,1.60
2019-05-12T06:48:14.168Z,1.60
2019-05-12T06:50:44.138Z,1.20
2019-05-12T06:53:13.947Z,1.40
2019-05-12T06:55:43.350Z,1.20
2019-05-12T06:58:14.010Z,1.37
2019-05-12T07:00:44.399Z,1.37
2019-05-12T07:03:14.275Z,1.30
2019-05-12T07:05:45.271Z,2.00
2019-05-12T07:08:20.097Z,1.60
2019-05-12T07:10:51.575Z,1.50
2019-05-12T07:13:23.348Z,1.50
2019-05-12T07:15:50.073Z,1.50
2019-05-12T07:18:26.509Z,1.80
2019-05-12T07:20:50.276Z,1.90
2019-05-12T07:23:19.685Z,1.77
2019-05-12T07:25:49.968Z,1.80
2019-05-12T07:28:18.513Z,1.80
2019-05-12T07:31:55.718Z,1.90
2019-05-12T07:34:58.881Z,19.27
2019-05-12T07:37:30.571Z,16.10
2019-05-12T07:41:17.573Z,3.33
2019-05-12T07:43:50.633Z,4.30
2019-05-12T07:46:19.596Z,3.60
2019-05-12T07:48:51.009Z,3.20
2019-05-12T07:52:59.461Z,3.70
2019-05-12T07:55:28.141Z,3.03
2019-05-12T07:58:04.002Z,2.87
2019-05-12T08:00:27.245Z,2.50
2019-05-12T08:02:55.938Z,2.10
2019-05-12T08:05:24.714Z,1.87
2019-05-12T08:07:54.198Z,2.20
2019-05-12T08:10:23.438Z,1.60
2019-05-12T08:12:58.942Z,1.70
2019-05-12T08:15:24.662Z,1.40
2019-05-12T08:17:57.792Z,1.80
2019-05-12T08:20:23.978Z,2.20
2019-05-12T08:22:54.169Z,2.50
2019-05-12T08:25:27.389Z,2.10
2019-05-12T08:28:10.143Z,2.00
2019-05-12T08:30:33.680Z,2.20
2019-05-12T08:33:09.265Z,1.50
2019-05-12T08:35:38.278Z,1.60
2019-05-12T08:38:05.854Z,1.50
2019-05-12T08:40:39.660Z,1.57
2019-05-12T08:43:10.237Z,1.50
2019-05-12T08:45:37.502Z,1.40
2019-05-12T08:48:10.161Z,1.50
2019-05-12T08:50:36.968Z,1.80
2019-05-12T08:53:05.833Z,1.80
2019-05-12T08:55:35.846Z,1.60
2019-05-12T08:58:05.017Z,1.70
2019-05-12T09:00:39.507Z,7.00
2019-05-12T09:03:08.754Z,4.80
2019-05-12T09:05:38.495Z,2.20
2019-05-12T09:08:07.587Z,2.77
2019-05-12T09:10:36.382Z,2.80
2019-05-12T09:13:04.808Z,3.20
2019-05-12T09:15:34.709Z,2.60
2019-05-12T09:18:04.890Z,2.80
2019-05-12T09:20:40.080Z,2.70
2019-05-12T09:23:07.544Z,2.87
2019-05-12T09:25:39.253Z,2.20
2019-05-12T09:28:06.848Z,2.17
2019-05-12T09:30:40.092Z,2.17
2019-05-12T09:33:06.152Z,1.80
2019-05-12T09:35:39.092Z,2.20
2019-05-12T09:38:06.215Z,1.90
2019-05-12T09:40:35.995Z,2.30
2019-05-12T09:43:10.472Z,1.77
2019-05-12T09:45:40.206Z,2.23
2019-05-12T09:48:09.214Z,2.40
2019-05-12T09:50:36.895Z,2.30
2019-05-12T09:53:11.275Z,3.40
2019-05-12T09:55:36.111Z,3.10
2019-05-12T09:58:04.883Z,5.70
2019-05-12T10:00:35.803Z,2.20
2019-05-12T10:03:08.441Z,1.80
2019-05-12T10:05:41.014Z,1.70
2019-05-12T10:08:06.421Z,1.40
2019-05-12T10:10:39.998Z,1.93
2019-05-12T10:13:05.882Z,2.50
2019-05-12T10:15:34.845Z,2.20
2019-05-12T10:18:11.100Z,2.40
2019-05-12T10:20:39.651Z,1.90
2019-05-12T10:23:10.131Z,1.60
2019-05-12T10:25:36.249Z,1.60
2019-05-12T10:28:11.483Z,2.30
2019-05-12T10:30:35.424Z,1.70
2019-05-12T10:33:04.179Z,2.10
2019-05-12T10:35:35.050Z,1.80
2019-05-12T10:38:09.181Z,1.70
2019-05-12T10:40:34.530Z,1.23
2019-05-12T10:43:04.545Z,2.00
2019-05-12T10:45:34.873Z,1.50
2019-05-12T10:48:04.001Z,1.60
2019-05-12T10:50:34.108Z,1.90
2019-05-12T10:53:04.668Z,1.50
2019-05-12T10:55:34.569Z,3.73
2019-05-12T10:58:06.409Z,2.70
2019-05-12T11:00:34.184Z,4.70
2019-05-12T11:03:10.302Z,6.07
2019-05-12T11:05:34.116Z,5.70
2019-05-12T11:08:06.426Z,3.70
2019-05-12T11:10:33.604Z,2.70
2019-05-12T11:13:08.431Z,3.23
2019-05-12T11:15:34.419Z,2.80
2019-05-12T11:18:09.250Z,2.80
2019-05-12T11:20:37.844Z,4.57
2019-05-12T11:23:06.307Z,5.20
2019-05-12T11:25:35.097Z,4.80
2019-05-12T11:28:04.192Z,2.83
2019-05-12T11:30:34.598Z,2.60
2019-05-12T11:33:10.008Z,2.43
2019-05-12T11:35:38.712Z,2.77
2019-05-12T11:38:07.492Z,2.50
2019-05-12T11:40:36.354Z,2.80
2019-05-12T11:43:06.563Z,2.37
2019-05-12T11:45:36.692Z,2.30
2019-05-12T11:48:09.940Z,4.30
2019-05-12T11:50:40.495Z,5.90
2019-05-12T11:53:06.768Z,5.10
2019-05-12T11:55:35.372Z,3.93
2019-05-12T11:58:11.309Z,3.47
2019-05-12T12:00:37.483Z,6.80
2019-05-12T12:03:12.522Z,10.10
2019-05-12T12:05:38.408Z,9.33
2019-05-12T12:08:07.232Z,11.33
2019-05-12T12:10:39.693Z,19.47
2019-05-12T12:13:06.244Z,10.67
2019-05-12T12:15:34.887Z,4.47
2019-05-12T12:18:12.778Z,2.20
2019-05-12T12:20:34.302Z,1.90
2019-05-12T12:23:06.470Z,2.00
2019-05-12T12:25:34.246Z,2.10
2019-05-12T12:28:04.324Z,3.27
2019-05-12T12:30:33.911Z,2.73
2019-05-12T12:33:04.137Z,1.73
2019-05-12T12:35:34.367Z,1.73
2019-05-12T12:38:03.856Z,1.70
2019-05-12T12:40:32.913Z,1.57
2019-05-12T12:43:03.766Z,1.83
2019-05-12T12:45:44.005Z,1.90
2019-05-12T12:48:13.828Z,1.70
2019-05-12T12:50:44.343Z,1.40
2019-05-12T12:53:12.809Z,1.40
2019-05-12T12:55:43.643Z,1.27
2019-05-12T12:58:13.931Z,1.30
2019-05-12T13:00:47.403Z,1.37
2019-05-12T13:03:14.337Z,1.30
2019-05-12T13:05:43.888Z,1.60
2019-05-12T13:08:12.777Z,2.63
2019-05-12T13:10:47.096Z,1.50
2019-05-12T13:13:14.060Z,1.40
2019-05-12T13:15:44.246Z,1.60
2019-05-12T13:18:18.093Z,1.40
2019-05-12T13:20:43.621Z,1.43
2019-05-12T13:23:14.212Z,1.80
2019-05-12T13:25:48.408Z,1.80
2019-05-12T13:28:19.053Z,1.57
2019-05-12T13:30:48.851Z,1.53
2019-05-12T13:33:18.219Z,1.67
2019-05-12T13:35:50.177Z,1.70
2019-05-12T13:38:16.642Z,2.03
2019-05-12T13:40:45.291Z,2.10
2019-05-12T13:43:15.595Z,2.20
2019-05-12T13:45:44.592Z,1.93
2019-05-12T13:48:15.823Z,2.87
2019-05-12T13:53:33.515Z,5.80
2019-05-12T13:56:04.691Z,3.80
2019-05-12T13:58:34.866Z,1.70
2019-05-12T14:01:20.803Z,1.60
2019-05-12T14:03:34.839Z,1.40
2019-05-12T14:06:03.924Z,1.50
2019-05-12T14:08:34.268Z,1.50
2019-05-12T14:11:02.797Z,1.30
2019-05-12T14:13:33.655Z,1.70
2019-05-12T14:16:05.725Z,1.67
2019-05-12T14:18:33.107Z,1.50
2019-05-12T14:21:04.232Z,1.40
2019-05-12T14:23:34.302Z,1.50
2019-05-12T14:26:07.815Z,1.60
2019-05-12T14:28:33.793Z,1.40
2019-05-12T14:31:02.424Z,1.23
2019-05-12T14:33:37.450Z,1.20
2019-05-12T14:36:03.918Z,1.43
2019-05-12T14:38:33.678Z,1.40
2019-05-12T14:41:09.649Z,1.30
2019-05-12T14:43:34.085Z,1.20
2019-05-12T14:46:06.339Z,1.33
2019-05-12T14:48:33.795Z,1.10
2019-05-12T14:51:03.466Z,1.10
2019-05-12T14:53:33.011Z,1.30
2019-05-12T14:56:03.878Z,1.20
2019-05-12T14:58:33.823Z,1.17
2019-05-12T15:01:03.886Z,1.30
2019-05-12T15:03:34.186Z,1.20
2019-05-12T15:06:03.780Z,1.10
2019-05-12T15:08:37.027Z,1.10
2019-05-12T15:11:08.806Z,1.30
2019-05-12T15:13:39.328Z,1.40
2019-05-12T15:16:41.996Z,1.40
2019-05-12T15:19:13.768Z,1.47
2019-05-12T15:21:43.758Z,1.23
2019-05-12T15:24:15.496Z,1.03
2019-05-12T15:26:44.238Z,1.30
2019-05-12T15:29:19.610Z,1.30
2019-05-12T15:31:53.182Z,1.10
2019-05-12T15:34:14.418Z,1.30
2019-05-12T15:36:51.699Z,1.27
2019-05-12T15:39:15.301Z,1.30
2019-05-12T15:41:44.011Z,1.30
2019-05-12T15:44:14.606Z,1.13
2019-05-12T15:46:44.228Z,1.00
2019-05-12T15:49:13.635Z,1.30
2019-05-12T15:51:51.022Z,1.10
2019-05-12T15:54:14.596Z,1.17
2019-05-12T15:56:43.636Z,1.20
2019-05-12T15:59:14.556Z,1.20
2019-05-12T16:01:43.989Z,1.50
2019-05-12T16:04:15.173Z,1.17
2019-05-12T16:06:52.974Z,1.30
2019-05-12T16:09:14.175Z,1.50
2019-05-12T16:11:42.840Z,1.20
2019-05-12T16:14:14.508Z,1.30
2019-05-12T16:16:46.838Z,1.40
2019-05-12T16:19:14.672Z,1.60
2019-05-12T16:21:45.499Z,1.70
2019-05-12T16:24:15.652Z,1.50
2019-05-12T16:26:51.681Z,1.30
2019-05-12T16:29:15.166Z,1.63
2019-05-12T16:31:45.600Z,1.60
2019-05-12T16:34:15.355Z,1.67
2019-05-12T16:36:49.856Z,1.90
2019-05-12T16:39:15.177Z,1.80
2019-05-12T16:41:43.972Z,1.70
2019-05-12T16:44:22.843Z,1.57
2019-05-12T16:46:44.516Z,2.30
2019-05-12T16:49:13.949Z,2.47
2019-05-12T16:51:43.786Z,2.40
2019-05-12T16:54:12.713Z,3.50
2019-05-12T16:56:43.258Z,2.20
2019-05-12T16:59:17.093Z,2.87
2019-05-12T17:01:43.901Z,3.00
2019-05-12T17:04:13.417Z,3.90
2019-05-12T17:06:43.608Z,1.83
2019-05-12T17:09:13.423Z,1.97
2019-05-12T17:11:47.219Z,2.53
2019-05-12T17:14:12.801Z,2.40
2019-05-12T17:16:43.345Z,1.83
2019-05-12T17:19:11.914Z,1.50
2019-05-12T17:21:40.426Z,1.80
2019-05-12T17:24:09.121Z,1.70
2019-05-12T17:26:37.921Z,1.77
2019-05-12T17:29:06.742Z,1.60
2019-05-12T17:31:35.647Z,2.10
2019-05-12T17:34:09.235Z,2.07
2019-05-12T17:36:44.854Z,1.53
2019-05-12T17:39:13.928Z,2.10
2019-05-12T17:41:45.416Z,2.13
2019-05-12T17:44:13.613Z,1.70
2019-05-12T17:46:44.189Z,1.83
2019-05-12T17:49:16.019Z,1.70
2019-05-12T17:51:57.201Z,1.60
2019-05-12T17:54:26.488Z,1.50
2019-05-12T17:56:56.784Z,1.60
2019-05-12T17:59:29.238Z,1.40
2019-05-12T18:01:57.538Z,1.50
2019-05-12T18:04:30.401Z,1.50
2019-05-12T18:06:56.873Z,1.50
2019-05-12T18:09:25.545Z,1.53
2019-05-12T18:11:56.179Z,1.70
2019-05-12T18:14:27.834Z,1.40
2019-05-12T18:17:02.358Z,1.30
2019-05-12T18:19:26.021Z,1.73
2019-05-12T18:22:02.757Z,1.27
2019-05-12T18:24:25.349Z,1.30
2019-05-12T18:26:58.847Z,1.50
2019-05-12T18:29:25.282Z,1.70
2019-05-12T18:31:55.628Z,1.83
2019-05-12T18:34:25.274Z,2.30
2019-05-12T18:36:55.837Z,1.67
2019-05-12T18:39:24.973Z,1.53
2019-05-12T18:41:54.968Z,1.40
2019-05-12T18:44:31.078Z,1.43
2019-05-12T18:46:57.027Z,1.53
2019-05-12T18:49:26.320Z,1.50
2019-05-12T18:51:57.123Z,1.67
2019-05-12T18:54:26.026Z,1.60
2019-05-12T18:57:02.158Z,1.33
2019-05-12T18:59:28.109Z,1.50
2019-05-12T19:01:56.443Z,1.70
2019-05-12T19:04:25.329Z,1.60
2019-05-12T19:06:54.793Z,1.40
2019-05-12T19:09:23.985Z,1.40
2019-05-12T19:11:53.626Z,1.40
2019-05-12T19:14:37.071Z,1.60
2019-05-12T19:17:03.688Z,2.20
2019-05-12T19:19:32.622Z,2.60
2019-05-12T19:22:08.545Z,2.10
2019-05-12T19:24:36.034Z,1.70
2019-05-12T19:27:04.223Z,1.60
2019-05-12T19:29:38.739Z,1.37
2019-05-12T19:32:04.489Z,1.40
2019-05-12T19:34:37.406Z,1.63
2019-05-12T19:37:06.251Z,1.60
2019-05-12T19:39:35.720Z,1.57
2019-05-12T19:42:04.454Z,1.70
2019-05-12T19:44:34.291Z,1.60
2019-05-12T19:47:03.078Z,2.30
2019-05-12T19:49:45.951Z,1.90
2019-05-12T19:52:03.559Z,1.90
2019-05-12T19:54:36.153Z,1.80
2019-05-12T19:57:03.466Z,1.70
2019-05-12T19:59:33.990Z,2.00
2019-05-12T20:02:04.081Z,1.83
2019-05-12T20:04:36.556Z,2.20
2019-05-12T20:07:03.772Z,1.90
2019-05-12T20:09:32.745Z,2.13
2019-05-12T20:12:06.785Z,2.20
2019-05-12T20:14:34.235Z,2.20
2019-05-12T20:17:02.437Z,2.67
2019-05-12T20:19:30.991Z,2.13
2019-05-12T20:21:59.616Z,2.53
2019-05-12T20:24:28.230Z,2.30
2019-05-12T20:26:56.874Z,1.97
2019-05-12T20:29:33.429Z,1.67
2019-05-12T20:31:56.446Z,1.60
2019-05-12T20:34:25.296Z,1.80
2019-05-12T20:36:59.166Z,1.47
2019-05-12T20:39:26.321Z,1.50
2019-05-12T20:42:00.494Z,1.60
2019-05-12T20:44:25.082Z,2.27
2019-05-12T20:46:56.205Z,4.40
2019-05-12T20:49:24.406Z,3.87
2019-05-12T20:51:54.851Z,2.43
2019-05-12T20:54:23.920Z,2.10
2019-05-12T20:57:01.847Z,2.23
2019-05-12T20:59:27.931Z,1.93
2019-05-12T21:01:53.868Z,2.10
2019-05-12T21:04:31.093Z,3.80
2019-05-12T21:06:54.367Z,3.20
2019-05-12T21:09:23.773Z,2.17
2019-05-12T21:11:54.778Z,2.13
2019-05-12T21:14:24.008Z,1.53
2019-05-12T21:16:53.885Z,1.60
2019-05-12T21:19:24.145Z,1.60
2019-05-12T21:21:53.260Z,1.37
2019-05-12T21:24:24.306Z,1.50
2019-05-12T21:26:54.177Z,1.50
2019-05-12T21:29:25.688Z,1.40
2019-05-12T21:31:56.313Z,1.70
2019-05-12T21:34:25.605Z,1.57
2019-05-12T21:36:59.047Z,1.50
2019-05-12T21:39:25.019Z,1.50
2019-05-12T21:41:54.917Z,1.83
2019-05-12T21:44:24.562Z,1.70
2019-05-12T21:47:03.607Z,1.80
2019-05-12T21:49:25.268Z,1.50
2019-05-12T21:51:58.941Z,1.67
2019-05-12T21:54:29.467Z,1.40
2019-05-12T21:56:55.158Z,1.20
2019-05-12T21:59:28.753Z,1.50
2019-05-12T22:01:54.237Z,1.23
2019-05-12T22:04:23.552Z,2.00
2019-05-12T22:06:57.096Z,1.70
2019-05-12T22:09:23.975Z,4.00
2019-05-12T22:11:54.156Z,1.80
2019-05-12T22:14:24.056Z,1.50
2019-05-12T22:16:54.699Z,1.50
2019-05-12T22:19:23.581Z,1.40
2019-05-12T22:21:53.666Z,1.40
2019-05-12T22:24:27.602Z,1.43
2019-05-12T22:26:54.339Z,1.30
2019-05-12T22:29:29.477Z,1.20
2019-05-12T22:31:54.095Z,1.20
2019-05-12T22:34:27.506Z,1.47
2019-05-12T22:36:57.625Z,1.37
2019-05-12T22:39:23.844Z,1.73
2019-05-12T22:41:52.442Z,1.60
2019-05-12T22:44:22.816Z,1.60
2019-05-12T22:46:51.292Z,1.53
2019-05-12T22:49:21.248Z,1.70
2019-05-12T22:51:56.566Z,1.23
2019-05-12T22:54:20.285Z,1.60
2019-05-12T22:56:49.623Z,1.30
2019-05-12T22:59:19.528Z,1.33
2019-05-12T23:01:48.215Z,1.30
2019-05-12T23:04:17.957Z,1.30
2019-05-12T23:06:46.903Z,1.17
2019-05-12T23:09:19.548Z,1.10
2019-05-12T23:11:45.901Z,1.27
2019-05-12T23:14:20.705Z,1.20
2019-05-12T23:16:44.901Z,1.13
2019-05-12T23:19:15.082Z,1.00
2019-05-12T23:21:44.025Z,1.10
2019-05-12T23:24:14.128Z,0.87
2019-05-12T23:26:47.860Z,1.00
2019-05-12T23:29:14.540Z,1.10
2019-05-12T23:31:43.332Z,1.10
2019-05-12T23:34:14.336Z,1.00
2019-05-12T23:36:44.000Z,0.90
2019-05-12T23:39:14.305Z,1.10
2019-05-12T23:41:43.729Z,1.07
2019-05-12T23:44:13.603Z,1.00
2019-05-12T23:46:43.761Z,1.03
2019-05-12T23:49:14.352Z,1.00
2019-05-12T23:51:43.880Z,1.00
2019-05-12T23:54:14.404Z,1.07
2019-05-12T23:56:44.367Z,1.10
2019-05-12T23:59:13.608Z,1.03
